sensor_id;sensor_type;location;lat;lon;timestamp;pressure;altitude;pressure_sealevel;temperature;humidity
68145;BME280;55400;51.824;-0.196;2023-04-26T00:00:56;101009.37;;;7.64;58.63
68145;BME280;55400;51.824;-0.196;2023-04-26T00:04:54;101001.58;;;7.60;58.77
68145;BME280;55400;51.824;-0.196;2023-04-26T00:08:54;101004.61;;;7.56;59.24
68145;BME280;55400;51.824;-0.196;2023-04-26T00:12:54;101004.61;;;7.54;59.24
68145;BME280;55400;51.824;-0.196;2023-04-26T00:16:54;100990.95;;;7.48;59.42
68145;BME280;55400;51.824;-0.196;2023-04-26T00:20:54;100988.11;;;7.41;59.54
68145;BME280;55400;51.824;-0.196;2023-04-26T00:24:54;100983.93;;;7.38;59.76
68145;BME280;55400;51.824;-0.196;2023-04-26T00:36:54;100973.55;;;7.39;60.07
68145;BME280;55400;51.824;-0.196;2023-04-26T00:40:54;100972.5;;;7.40;60.15
68145;BME280;55400;51.824;-0.196;2023-04-26T00:48:54;100974.33;;;7.36;60.21
68145;BME280;55400;51.824;-0.196;2023-04-26T00:52:54;100975.01999999999;;;7.31;60.43
68145;BME280;55400;51.824;-0.196;2023-04-26T00:56:54;100975.01999999999;;;7.26;60.43
68145;BME280;55400;51.824;-0.196;2023-04-26T01:00:54;100964.34000000001;;;7.22;60.59
68145;BME280;55400;51.824;-0.196;2023-04-26T01:04:54;100964.34000000001;;;7.17;60.69
68145;BME280;55400;51.824;-0.196;2023-04-26T01:08:54;100958.37;;;7.12;61.01
68145;BME280;55400;51.824;-0.196;2023-04-26T01:12:54;100959.38;;;7.06;61.08
68145;BME280;55400;51.824;-0.196;2023-04-26T01:16:55;100958.83;;;7.04;61.32
68145;BME280;55400;51.824;-0.196;2023-04-26T01:20:54;100954.44;;;7.02;61.24
68145;BME280;55400;51.824;-0.196;2023-04-26T01:24:54;100948.55;;;7.01;61.24
68145;BME280;55400;51.824;-0.196;2023-04-26T01:28:54;100950.3;;;7.00;61.44
68145;BME280;55400;51.824;-0.196;2023-04-26T01:32:54;100946.01;;;6.97;61.66
68145;BME280;55400;51.824;-0.196;2023-04-26T01:36:54;100941.25;;;6.92;61.66
68145;BME280;55400;51.824;-0.196;2023-04-26T01:40:54;100939.11;;;6.88;61.81
68145;BME280;55400;51.824;-0.196;2023-04-26T01:44:54;100939.69;;;6.84;61.87
68145;BME280;55400;51.824;-0.196;2023-04-26T01:48:54;100939.69;;;6.82;61.87
68145;BME280;55400;51.824;-0.196;2023-04-26T01:52:54;100939.04;;;6.79;61.83
68145;BME280;55400;51.824;-0.196;2023-04-26T01:56:54;100936.01999999999;;;6.75;61.86
68145;BME280;55400;51.824;-0.196;2023-04-26T02:00:55;100936.01999999999;;;6.67;61.86
68145;BME280;55400;51.824;-0.196;2023-04-26T02:04:55;100940.11;;;6.58;61.73
68145;BME280;55400;51.824;-0.196;2023-04-26T02:08:55;100930.24;;;6.54;61.78
68145;BME280;55400;51.824;-0.196;2023-04-26T02:12:55;100932.64;;;6.48;61.78
68145;BME280;55400;51.824;-0.196;2023-04-26T02:16:54;100931.87000000001;;;6.42;62.03
68145;BME280;55400;51.824;-0.196;2023-04-26T02:20:55;100936.46;;;6.40;62.10
68145;BME280;55400;51.824;-0.196;2023-04-26T02:24:54;100936.46;;;6.37;62.10
68145;BME280;55400;51.824;-0.196;2023-04-26T02:28:55;100924.37;;;6.33;62.19
68145;BME280;55400;51.824;-0.196;2023-04-26T02:32:54;100917.86;;;6.29;62.21
68145;BME280;55400;51.824;-0.196;2023-04-26T02:36:55;100918.29000000001;;;6.27;62.06
68145;BME280;55400;51.824;-0.196;2023-04-26T02:40:57;100921.11;;;6.25;62.40
68145;BME280;55400;51.824;-0.196;2023-04-26T02:44:55;100909.06999999999;;;6.21;62.42
68145;BME280;55400;51.824;-0.196;2023-04-26T02:48:55;100902.5;;;6.20;62.65
68145;BME280;55400;51.824;-0.196;2023-04-26T02:52:55;100902.5;;;6.19;62.51
68145;BME280;55400;51.824;-0.196;2023-04-26T02:56:55;100911.5;;;6.20;62.99
68145;BME280;55400;51.824;-0.196;2023-04-26T03:00:55;100911.5;;;6.22;62.99
68145;BME280;55400;51.824;-0.196;2023-04-26T03:04:55;100908.04000000001;;;6.28;63.17
68145;BME280;55400;51.824;-0.196;2023-04-26T03:08:55;100908.04000000001;;;6.30;63.00
68145;BME280;55400;51.824;-0.196;2023-04-26T03:12:55;100896.09;;;6.29;62.97
68145;BME280;55400;51.824;-0.196;2023-04-26T03:24:55;100909.93999999999;;;6.28;62.62
68145;BME280;55400;51.824;-0.196;2023-04-26T03:28:55;100913.06;;;6.23;62.58
68145;BME280;55400;51.824;-0.196;2023-04-26T03:32:55;100897.36;;;6.19;62.58
68145;BME280;55400;51.824;-0.196;2023-04-26T03:36:55;100890.81;;;6.16;62.64
68145;BME280;55400;51.824;-0.196;2023-04-26T03:40:55;100891.65000000001;;;6.11;62.70
68145;BME280;55400;51.824;-0.196;2023-04-26T03:44:55;100891.65000000001;;;6.08;62.94
68145;BME280;55400;51.824;-0.196;2023-04-26T03:48:55;100885.02;;;6.06;63.17
68145;BME280;55400;51.824;-0.196;2023-04-26T03:52:55;100885.82;;;6.01;63.34
68145;BME280;55400;51.824;-0.196;2023-04-26T03:56:55;100885.82;;;5.96;63.34
68145;BME280;55400;51.824;-0.196;2023-04-26T04:00:55;100886.84;;;5.91;63.39
68145;BME280;55400;51.824;-0.196;2023-04-26T04:04:55;100889.69;;;5.88;63.66
68145;BME280;55400;51.824;-0.196;2023-04-26T04:08:55;100883.08;;;5.86;63.84
68145;BME280;55400;51.824;-0.196;2023-04-26T04:12:55;100883.08;;;5.88;64.00
68145;BME280;55400;51.824;-0.196;2023-04-26T04:16:55;100881.91;;;5.97;63.99
68145;BME280;55400;51.824;-0.196;2023-04-26T04:20:55;100876.79000000001;;;6.07;64.14
68145;BME280;55400;51.824;-0.196;2023-04-26T04:24:55;100874.17;;;6.09;64.19
68145;BME280;55400;51.824;-0.196;2023-04-26T04:28:55;100875.36;;;6.08;64.30
68145;BME280;55400;51.824;-0.196;2023-04-26T04:32:55;100873.99;;;6.09;64.35
68145;BME280;55400;51.824;-0.196;2023-04-26T04:36:55;100878.12;;;6.11;64.35
68145;BME280;55400;51.824;-0.196;2023-04-26T04:40:55;100873.87999999999;;;6.12;64.25
68145;BME280;55400;51.824;-0.196;2023-04-26T04:44:55;100870.08;;;6.10;64.30
68145;BME280;55400;51.824;-0.196;2023-04-26T04:48:55;100870.08;;;6.05;64.43
68145;BME280;55400;51.824;-0.196;2023-04-26T04:52:55;100869.48999999999;;;5.94;64.74
68145;BME280;55400;51.824;-0.196;2023-04-26T04:56:55;100869.48999999999;;;5.84;64.63
68145;BME280;55400;51.824;-0.196;2023-04-26T05:00:55;100884.56;;;5.74;64.89
68145;BME280;55400;51.824;-0.196;2023-04-26T05:04:55;100884.56;;;5.62;64.85
68145;BME280;55400;51.824;-0.196;2023-04-26T05:08:55;100879.40999999999;;;5.58;64.54
68145;BME280;55400;51.824;-0.196;2023-04-26T05:16:55;100865.73;;;5.59;64.91
68145;BME280;55400;51.824;-0.196;2023-04-26T05:20:56;100861.78;;;5.57;64.91
68145;BME280;55400;51.824;-0.196;2023-04-26T05:24:55;100861.22;;;5.52;65.29
68145;BME280;55400;51.824;-0.196;2023-04-26T05:28:55;100861.22;;;5.50;65.66
68145;BME280;55400;51.824;-0.196;2023-04-26T05:32:55;100866.95999999999;;;5.51;65.47
68145;BME280;55400;51.824;-0.196;2023-04-26T05:36:55;100870.64;;;5.49;65.63
68145;BME280;55400;51.824;-0.196;2023-04-26T05:40:55;100870.64;;;5.47;65.76
68145;BME280;55400;51.824;-0.196;2023-04-26T05:44:55;100875.35;;;5.48;66.23
68145;BME280;55400;51.824;-0.196;2023-04-26T05:48:55;100869.8;;;5.52;66.23
68145;BME280;55400;51.824;-0.196;2023-04-26T05:52:55;100869.7;;;5.56;66.84
68145;BME280;55400;51.824;-0.196;2023-04-26T05:56:55;100869.7;;;5.63;66.84
68145;BME280;55400;51.824;-0.196;2023-04-26T06:00:55;100884.7;;;5.72;66.79
68145;BME280;55400;51.824;-0.196;2023-04-26T06:04:55;100884.7;;;5.79;67.12
68145;BME280;55400;51.824;-0.196;2023-04-26T06:08:55;100892.31;;;5.88;67.14
68145;BME280;55400;51.824;-0.196;2023-04-26T06:12:55;100892.31;;;5.94;67.14
68145;BME280;55400;51.824;-0.196;2023-04-26T06:16:55;100899.62000000001;;;6.01;67.34
68145;BME280;55400;51.824;-0.196;2023-04-26T06:20:55;100901.0;;;6.13;66.81
68145;BME280;55400;51.824;-0.196;2023-04-26T06:24:55;100901.0;;;6.26;66.81
68145;BME280;55400;51.824;-0.196;2023-04-26T06:28:55;100898.15999999999;;;6.37;66.18
68145;BME280;55400;51.824;-0.196;2023-04-26T06:32:55;100900.35;;;6.48;66.14
68145;BME280;55400;51.824;-0.196;2023-04-26T06:36:55;100898.41;;;6.57;65.61
68145;BME280;55400;51.824;-0.196;2023-04-26T06:40:55;100898.41;;;6.61;66.35
68145;BME280;55400;51.824;-0.196;2023-04-26T06:44:56;100889.17;;;6.67;66.51
68145;BME280;55400;51.824;-0.196;2023-04-26T06:48:55;100889.17;;;6.73;66.51
68145;BME280;55400;51.824;-0.196;2023-04-26T06:52:55;100888.69;;;6.79;66.51
68145;BME280;55400;51.824;-0.196;2023-04-26T06:56:55;100885.47;;;6.81;66.27
68145;BME280;55400;51.824;-0.196;2023-04-26T07:00:55;100884.66;;;6.87;66.27
68145;BME280;55400;51.824;-0.196;2023-04-26T07:04:55;100887.64;;;6.92;66.34
68145;BME280;55400;51.824;-0.196;2023-04-26T07:08:56;100887.64;;;6.95;66.34
68145;BME280;55400;51.824;-0.196;2023-04-26T07:12:55;100892.67;;;6.99;66.08
68145;BME280;55400;51.824;-0.196;2023-04-26T07:16:55;100892.97;;;7.07;65.95
68145;BME280;55400;51.824;-0.196;2023-04-26T07:20:55;100885.85;;;7.14;65.88
68145;BME280;55400;51.824;-0.196;2023-04-26T07:24:55;100884.72;;;7.20;65.82
68145;BME280;55400;51.824;-0.196;2023-04-26T07:28:55;100884.72;;;7.28;65.82
68145;BME280;55400;51.824;-0.196;2023-04-26T07:32:55;100887.66;;;7.36;65.64
68145;BME280;55400;51.824;-0.196;2023-04-26T07:36:55;100889.28;;;7.46;65.93
68145;BME280;55400;51.824;-0.196;2023-04-26T07:40:55;100895.67;;;7.56;65.93
68145;BME280;55400;51.824;-0.196;2023-04-26T07:44:55;100899.92;;;7.65;65.24
68145;BME280;55400;51.824;-0.196;2023-04-26T07:48:56;100899.92;;;7.66;65.31
68145;BME280;55400;51.824;-0.196;2023-04-26T07:52:55;100895.58;;;7.72;65.17
68145;BME280;55400;51.824;-0.196;2023-04-26T07:56:55;100893.55;;;7.85;64.34
68145;BME280;55400;51.824;-0.196;2023-04-26T08:00:55;100889.29000000001;;;7.98;64.74
68145;BME280;55400;51.824;-0.196;2023-04-26T08:04:56;100892.46;;;8.13;64.74
68145;BME280;55400;51.824;-0.196;2023-04-26T08:08:55;100897.09;;;8.29;63.40
68145;BME280;55400;51.824;-0.196;2023-04-26T08:12:56;100895.2;;;8.41;63.61
68145;BME280;55400;51.824;-0.196;2023-04-26T08:16:55;100895.2;;;8.39;63.05
68145;BME280;55400;51.824;-0.196;2023-04-26T08:24:56;100891.04999999999;;;8.43;62.51
68145;BME280;55400;51.824;-0.196;2023-04-26T08:28:55;100896.63;;;8.45;62.46
68145;BME280;55400;51.824;-0.196;2023-04-26T08:32:56;100890.48;;;8.46;62.10
68145;BME280;55400;51.824;-0.196;2023-04-26T08:36:56;100890.48;;;8.48;61.79
68145;BME280;55400;51.824;-0.196;2023-04-26T08:40:56;100887.41;;;8.53;62.11
68145;BME280;55400;51.824;-0.196;2023-04-26T08:44:56;100888.2;;;8.58;60.80
68145;BME280;55400;51.824;-0.196;2023-04-26T08:48:57;100888.75;;;8.61;60.80
68145;BME280;55400;51.824;-0.196;2023-04-26T08:52:56;100882.05;;;8.67;60.08
68145;BME280;55400;51.824;-0.196;2023-04-26T08:56:57;100879.38;;;8.81;60.14
68145;BME280;55400;51.824;-0.196;2023-04-26T09:00:56;100879.38;;;8.85;60.14
68145;BME280;55400;51.824;-0.196;2023-04-26T09:04:56;100879.86;;;8.92;59.48
68145;BME280;55400;51.824;-0.196;2023-04-26T09:08:56;100889.48000000001;;;8.99;58.32
68145;BME280;55400;51.824;-0.196;2023-04-26T09:12:56;100888.2;;;9.10;58.60
68145;BME280;55400;51.824;-0.196;2023-04-26T09:16:56;100889.26;;;9.18;58.00
68145;BME280;55400;51.824;-0.196;2023-04-26T09:21:03;100886.56;;;9.25;57.81
68145;BME280;55400;51.824;-0.196;2023-04-26T09:24:56;100883.73;;;9.34;57.03
68145;BME280;55400;51.824;-0.196;2023-04-26T09:32:56;100887.5;;;9.50;56.22
68145;BME280;55400;51.824;-0.196;2023-04-26T09:36:56;100887.5;;;9.59;55.89
68145;BME280;55400;51.824;-0.196;2023-04-26T09:40:56;100892.96;;;9.58;55.60
68145;BME280;55400;51.824;-0.196;2023-04-26T09:45:02;100894.05;;;9.62;54.71
68145;BME280;55400;51.824;-0.196;2023-04-26T09:48:59;100899.55;;;9.68;54.64
68145;BME280;55400;51.824;-0.196;2023-04-26T09:52:56;100899.55;;;9.71;54.64
68145;BME280;55400;51.824;-0.196;2023-04-26T09:56:59;100895.34;;;9.72;53.36
68145;BME280;55400;51.824;-0.196;2023-04-26T10:00:56;100884.5;;;9.62;54.23
68145;BME280;55400;51.824;-0.196;2023-04-26T10:04:56;100882.29;;;9.53;53.65
68145;BME280;55400;51.824;-0.196;2023-04-26T10:08:56;100879.78;;;9.51;53.27
68145;BME280;55400;51.824;-0.196;2023-04-26T10:12:56;100873.85;;;9.54;53.27
68145;BME280;55400;51.824;-0.196;2023-04-26T10:16:56;100870.25;;;9.68;52.83
68145;BME280;55400;51.824;-0.196;2023-04-26T10:20:56;100862.89;;;9.77;53.23
68145;BME280;55400;51.824;-0.196;2023-04-26T10:24:56;100866.66;;;9.76;50.69
68145;BME280;55400;51.824;-0.196;2023-04-26T10:28:56;100861.78;;;9.84;50.69
68145;BME280;55400;51.824;-0.196;2023-04-26T10:44:56;100858.73;;;10.02;52.83
68145;BME280;55400;51.824;-0.196;2023-04-26T10:48:56;100847.22;;;10.05;51.14
68145;BME280;55400;51.824;-0.196;2023-04-26T10:53:04;100846.57999999999;;;10.08;50.89
68145;BME280;55400;51.824;-0.196;2023-04-26T10:56:56;100854.81;;;10.10;50.74
68145;BME280;55400;51.824;-0.196;2023-04-26T11:01:02;100852.98;;;10.09;50.74
68145;BME280;55400;51.824;-0.196;2023-04-26T11:04:56;100852.98;;;10.05;49.02
68145;BME280;55400;51.824;-0.196;2023-04-26T11:08:56;100849.0;;;10.06;49.78
68145;BME280;55400;51.824;-0.196;2023-04-26T11:12:59;100844.81;;;10.12;49.77
68145;BME280;55400;51.824;-0.196;2023-04-26T11:16:56;100844.81;;;10.17;49.77
68145;BME280;55400;51.824;-0.196;2023-04-26T11:20:56;100839.25;;;10.30;49.34
68145;BME280;55400;51.824;-0.196;2023-04-26T11:24:56;100837.01999999999;;;10.49;50.01
68145;BME280;55400;51.824;-0.196;2023-04-26T11:28:56;100827.45;;;10.66;49.51
68145;BME280;55400;51.824;-0.196;2023-04-26T11:32:56;100824.47;;;10.82;49.51
68145;BME280;55400;51.824;-0.196;2023-04-26T11:36:56;100824.47;;;10.88;47.10
68145;BME280;55400;51.824;-0.196;2023-04-26T11:40:56;100826.34000000001;;;10.97;47.87
68145;BME280;55400;51.824;-0.196;2023-04-26T11:44:56;100826.34000000001;;;11.02;46.66
68145;BME280;55400;51.824;-0.196;2023-04-26T11:48:56;100823.61;;;11.07;45.92
68145;BME280;55400;51.824;-0.196;2023-04-26T11:52:57;100828.19;;;11.17;47.25
68145;BME280;55400;51.824;-0.196;2023-04-26T11:56:56;100822.31;;;11.28;46.86
68145;BME280;55400;51.824;-0.196;2023-04-26T12:00:56;100825.16;;;11.40;46.86
68145;BME280;55400;51.824;-0.196;2023-04-26T12:04:57;100817.53;;;11.49;46.88
68145;BME280;55400;51.824;-0.196;2023-04-26T12:08:56;100822.34;;;11.61;46.78
68145;BME280;55400;51.824;-0.196;2023-04-26T12:12:57;100820.01000000001;;;11.76;46.78
68145;BME280;55400;51.824;-0.196;2023-04-26T12:16:57;100821.84;;;11.87;44.42
68145;BME280;55400;51.824;-0.196;2023-04-26T12:20:56;100821.93;;;11.95;45.08
68145;BME280;55400;51.824;-0.196;2023-04-26T12:25:03;100821.93;;;11.97;45.55
68145;BME280;55400;51.824;-0.196;2023-04-26T12:32:56;100823.47;;;11.96;44.46
68145;BME280;55400;51.824;-0.196;2023-04-26T12:36:56;100823.47;;;11.97;44.46
68145;BME280;55400;51.824;-0.196;2023-04-26T12:40:56;100820.48999999999;;;11.96;44.25
68145;BME280;55400;51.824;-0.196;2023-04-26T12:44:56;100818.87000000001;;;12.03;45.64
68145;BME280;55400;51.824;-0.196;2023-04-26T12:48:56;100816.58;;;12.10;44.18
68145;BME280;55400;51.824;-0.196;2023-04-26T12:52:56;100819.26;;;12.06;44.43
68145;BME280;55400;51.824;-0.196;2023-04-26T12:56:56;100821.89;;;11.94;43.95
68145;BME280;55400;51.824;-0.196;2023-04-26T13:00:56;100821.89;;;11.86;44.26
68145;BME280;55400;51.824;-0.196;2023-04-26T13:04:56;100818.3;;;11.76;45.07
68145;BME280;55400;51.824;-0.196;2023-04-26T13:08:56;100825.84000000001;;;11.74;44.07
68145;BME280;55400;51.824;-0.196;2023-04-26T13:12:56;100828.56;;;11.66;44.82
68145;BME280;55400;51.824;-0.196;2023-04-26T13:16:56;100824.05;;;11.59;44.67
68145;BME280;55400;51.824;-0.196;2023-04-26T13:20:56;100821.24;;;11.63;44.67
68145;BME280;55400;51.824;-0.196;2023-04-26T13:24:56;100821.24;;;11.62;44.58
68145;BME280;55400;51.824;-0.196;2023-04-26T13:28:56;100818.52;;;11.61;44.24
68145;BME280;55400;51.824;-0.196;2023-04-26T13:32:56;100816.83;;;11.69;44.24
68145;BME280;55400;51.824;-0.196;2023-04-26T13:36:57;100816.83;;;11.78;44.10
68145;BME280;55400;51.824;-0.196;2023-04-26T13:40:56;100821.45000000001;;;11.89;43.71
68145;BME280;55400;51.824;-0.196;2023-04-26T13:44:56;100818.40999999999;;;11.94;43.85
68145;BME280;55400;51.824;-0.196;2023-04-26T13:48:56;100818.40999999999;;;11.97;43.28
68145;BME280;55400;51.824;-0.196;2023-04-26T13:52:56;100820.75;;;11.94;43.68
68145;BME280;55400;51.824;-0.196;2023-04-26T13:56:56;100818.42;;;11.93;43.16
68145;BME280;55400;51.824;-0.196;2023-04-26T14:00:56;100814.03;;;11.85;43.66
68145;BME280;55400;51.824;-0.196;2023-04-26T14:04:56;100810.55;;;11.76;42.99
68145;BME280;55400;51.824;-0.196;2023-04-26T14:08:56;100816.27;;;11.81;43.05
68145;BME280;55400;51.824;-0.196;2023-04-26T14:12:56;100816.27;;;11.85;43.43
68145;BME280;55400;51.824;-0.196;2023-04-26T14:16:56;100818.67;;;11.90;43.50
68145;BME280;55400;51.824;-0.196;2023-04-26T14:20:57;100810.93;;;11.86;44.33
68145;BME280;55400;51.824;-0.196;2023-04-26T14:28:57;100806.73000000001;;;11.89;43.44
68145;BME280;55400;51.824;-0.196;2023-04-26T14:36:57;100806.87000000001;;;11.85;43.39
68145;BME280;55400;51.824;-0.196;2023-04-26T14:40:57;100805.69;;;11.80;43.33
68145;BME280;55400;51.824;-0.196;2023-04-26T14:48:57;100799.28;;;11.83;44.32
68145;BME280;55400;51.824;-0.196;2023-04-26T14:56:57;100800.84000000001;;;11.85;44.66
68145;BME280;55400;51.824;-0.196;2023-04-26T15:00:57;100800.34000000001;;;11.84;44.72
68145;BME280;55400;51.824;-0.196;2023-04-26T15:04:57;100800.34000000001;;;11.75;44.72
68145;BME280;55400;51.824;-0.196;2023-04-26T15:08:57;100796.7;;;11.72;44.66
68145;BME280;55400;51.824;-0.196;2023-04-26T15:12:57;100798.5;;;11.68;44.66
68145;BME280;55400;51.824;-0.196;2023-04-26T15:16:57;100800.23999999999;;;11.65;44.84
68145;BME280;55400;51.824;-0.196;2023-04-26T15:20:57;100799.25;;;11.69;44.84
68145;BME280;55400;51.824;-0.196;2023-04-26T15:24:57;100800.06;;;11.76;44.40
68145;BME280;55400;51.824;-0.196;2023-04-26T15:28:57;100801.01;;;11.81;43.91
68145;BME280;55400;51.824;-0.196;2023-04-26T15:32:57;100795.4;;;11.88;43.87
68145;BME280;55400;51.824;-0.196;2023-04-26T15:36:58;100795.4;;;11.94;43.87
68145;BME280;55400;51.824;-0.196;2023-04-26T15:40:57;100791.69;;;11.97;43.53
68145;BME280;55400;51.824;-0.196;2023-04-26T15:44:57;100791.04;;;12.03;43.87
68145;BME280;55400;51.824;-0.196;2023-04-26T15:48:57;100787.81;;;12.06;43.66
68145;BME280;55400;51.824;-0.196;2023-04-26T15:52:57;100792.25;;;12.08;43.54
68145;BME280;55400;51.824;-0.196;2023-04-26T15:56:57;100792.25;;;12.09;43.43
68145;BME280;55400;51.824;-0.196;2023-04-26T16:00:57;100784.72;;;12.10;43.41
68145;BME280;55400;51.824;-0.196;2023-04-26T16:04:57;100784.72;;;12.09;43.41
68145;BME280;55400;51.824;-0.196;2023-04-26T16:08:57;100785.61;;;12.08;43.78
68145;BME280;55400;51.824;-0.196;2023-04-26T16:12:57;100793.66;;;12.11;43.68
68145;BME280;55400;51.824;-0.196;2023-04-26T16:16:57;100794.62;;;12.07;43.68
68145;BME280;55400;51.824;-0.196;2023-04-26T16:21:01;100795.58;;;11.96;43.92
68145;BME280;55400;51.824;-0.196;2023-04-26T16:24:57;100798.1;;;11.93;44.11
68145;BME280;55400;51.824;-0.196;2023-04-26T16:28:57;100801.45999999999;;;12.00;44.22
68145;BME280;55400;51.824;-0.196;2023-04-26T16:32:57;100801.45;;;12.04;44.24
68145;BME280;55400;51.824;-0.196;2023-04-26T16:36:57;100801.45;;;12.05;44.24
68145;BME280;55400;51.824;-0.196;2023-04-26T16:40:57;100814.04;;;12.07;44.39
68145;BME280;55400;51.824;-0.196;2023-04-26T16:44:57;100812.23;;;12.06;43.93
68145;BME280;55400;51.824;-0.196;2023-04-26T16:48:57;100812.23;;;12.10;44.63
68145;BME280;55400;51.824;-0.196;2023-04-26T16:52:57;100809.66;;;12.11;44.34
68145;BME280;55400;51.824;-0.196;2023-04-26T16:56:57;100813.95;;;12.08;44.60
68145;BME280;55400;51.824;-0.196;2023-04-26T17:04:57;100812.78;;;12.01;44.77
68145;BME280;55400;51.824;-0.196;2023-04-26T17:08:57;100812.78;;;11.97;44.69
68145;BME280;55400;51.824;-0.196;2023-04-26T17:12:57;100811.6;;;11.87;45.14
68145;BME280;55400;51.824;-0.196;2023-04-26T17:16:57;100805.31999999999;;;11.77;45.03
68145;BME280;55400;51.824;-0.196;2023-04-26T17:20:57;100803.52;;;11.76;45.43
68145;BME280;55400;51.824;-0.196;2023-04-26T17:24:57;100812.45;;;11.80;45.16
68145;BME280;55400;51.824;-0.196;2023-04-26T17:28:57;100812.45;;;11.82;45.34
68145;BME280;55400;51.824;-0.196;2023-04-26T17:32:57;100815.37;;;11.81;45.24
68145;BME280;55400;51.824;-0.196;2023-04-26T17:36:57;100811.17;;;11.85;45.40
68145;BME280;55400;51.824;-0.196;2023-04-26T17:40:58;100807.47;;;11.86;45.34
68145;BME280;55400;51.824;-0.196;2023-04-26T17:44:57;100808.59;;;11.81;45.34
68145;BME280;55400;51.824;-0.196;2023-04-26T17:48:57;100811.32;;;11.72;45.60
68145;BME280;55400;51.824;-0.196;2023-04-26T17:52:57;100809.56;;;11.69;45.32
68145;BME280;55400;51.824;-0.196;2023-04-26T17:56:57;100805.44;;;11.68;45.58
68145;BME280;55400;51.824;-0.196;2023-04-26T18:00:57;100815.19;;;11.67;45.71
68145;BME280;55400;51.824;-0.196;2023-04-26T18:08:57;100814.33;;;11.63;46.20
68145;BME280;55400;51.824;-0.196;2023-04-26T18:12:57;100814.12;;;11.55;46.50
68145;BME280;55400;51.824;-0.196;2023-04-26T18:16:57;100814.12;;;11.48;46.47
68145;BME280;55400;51.824;-0.196;2023-04-26T18:20:57;100810.65;;;11.43;46.87
68145;BME280;55400;51.824;-0.196;2023-04-26T18:24:57;100815.01;;;11.35;46.87
68145;BME280;55400;51.824;-0.196;2023-04-26T18:28:57;100819.87000000001;;;11.31;47.29
68145;BME280;55400;51.824;-0.196;2023-04-26T18:32:57;100819.87000000001;;;11.28;47.29
68145;BME280;55400;51.824;-0.196;2023-04-26T18:36:57;100828.91;;;11.27;47.48
68145;BME280;55400;51.824;-0.196;2023-04-26T18:40:57;100829.26999999999;;;11.20;47.48
68145;BME280;55400;51.824;-0.196;2023-04-26T18:44:57;100821.89;;;11.14;47.62
68145;BME280;55400;51.824;-0.196;2023-04-26T18:48:58;100813.59999999999;;;11.09;47.88
68145;BME280;55400;51.824;-0.196;2023-04-26T18:52:57;100811.3;;;11.00;48.26
68145;BME280;55400;51.824;-0.196;2023-04-26T18:56:58;100813.54;;;10.95;48.50
68145;BME280;55400;51.824;-0.196;2023-04-26T19:00:57;100816.57;;;10.90;48.68
68145;BME280;55400;51.824;-0.196;2023-04-26T19:04:57;100816.57;;;10.88;48.68
68145;BME280;55400;51.824;-0.196;2023-04-26T19:08:58;100819.9;;;10.82;49.15
68145;BME280;55400;51.824;-0.196;2023-04-26T19:12:57;100819.9;;;10.77;49.15
68145;BME280;55400;51.824;-0.196;2023-04-26T19:16:57;100820.48;;;10.73;49.39
68145;BME280;55400;51.824;-0.196;2023-04-26T19:21:01;100827.84;;;10.65;49.96
68145;BME280;55400;51.824;-0.196;2023-04-26T19:24:57;100829.22;;;10.58;50.12
68145;BME280;55400;51.824;-0.196;2023-04-26T19:28:57;100838.58;;;10.55;50.12
68145;BME280;55400;51.824;-0.196;2023-04-26T19:32:58;100844.04;;;10.54;50.35
68145;BME280;55400;51.824;-0.196;2023-04-26T19:40:59;100846.72;;;10.52;50.67
68145;BME280;55400;51.824;-0.196;2023-04-26T19:44:57;100846.72;;;10.44;50.67
68145;BME280;55400;51.824;-0.196;2023-04-26T19:48:58;100859.41;;;10.46;51.15
68145;BME280;55400;51.824;-0.196;2023-04-26T19:52:57;100859.41;;;10.47;51.15
68145;BME280;55400;51.824;-0.196;2023-04-26T19:56:58;100862.95;;;10.45;51.25
68145;BME280;55400;51.824;-0.196;2023-04-26T20:00:57;100860.20999999999;;;10.42;51.46
68145;BME280;55400;51.824;-0.196;2023-04-26T20:04:58;100861.8;;;10.40;51.46
68145;BME280;55400;51.824;-0.196;2023-04-26T20:08:57;100858.48;;;10.38;51.54
68145;BME280;55400;51.824;-0.196;2023-04-26T20:12:57;100865.08;;;10.32;51.58
68145;BME280;55400;51.824;-0.196;2023-04-26T20:16:57;100869.37000000001;;;10.29;51.58
68145;BME280;55400;51.824;-0.196;2023-04-26T20:20:58;100864.47;;;10.22;51.77
68145;BME280;55400;51.824;-0.196;2023-04-26T20:24:57;100873.35;;;10.17;52.03
68145;BME280;55400;51.824;-0.196;2023-04-26T20:28:58;100877.48;;;10.18;52.18
68145;BME280;55400;51.824;-0.196;2023-04-26T20:32:58;100875.17;;;10.17;52.25
68145;BME280;55400;51.824;-0.196;2023-04-26T20:36:58;100875.17;;;10.16;52.38
68145;BME280;55400;51.824;-0.196;2023-04-26T20:40:57;100879.35;;;10.15;52.48
68145;BME280;55400;51.824;-0.196;2023-04-26T20:44:58;100880.54;;;10.13;52.56
68145;BME280;55400;51.824;-0.196;2023-04-26T20:48:58;100882.95000000001;;;10.09;53.02
68145;BME280;55400;51.824;-0.196;2023-04-26T20:52:58;100888.92;;;10.07;53.02
68145;BME280;55400;51.824;-0.196;2023-04-26T20:56:58;100890.25;;;10.08;53.26
68145;BME280;55400;51.824;-0.196;2023-04-26T21:00:58;100885.63;;;10.07;53.48
68145;BME280;55400;51.824;-0.196;2023-04-26T21:04:58;100885.63;;;10.06;53.44
68145;BME280;55400;51.824;-0.196;2023-04-26T21:08:58;100896.56;;;10.04;53.47
68145;BME280;55400;51.824;-0.196;2023-04-26T21:12:58;100899.58;;;10.02;53.97
68145;BME280;55400;51.824;-0.196;2023-04-26T21:16:58;100900.97;;;10.00;53.97
68145;BME280;55400;51.824;-0.196;2023-04-26T21:20:58;100903.71;;;9.98;54.08
68145;BME280;55400;51.824;-0.196;2023-04-26T21:24:58;100902.43000000001;;;9.96;54.19
68145;BME280;55400;51.824;-0.196;2023-04-26T21:28:58;100902.43000000001;;;9.93;54.25
68145;BME280;55400;51.824;-0.196;2023-04-26T21:32:58;100897.38;;;9.91;54.55
68145;BME280;55400;51.824;-0.196;2023-04-26T21:36:58;100896.41;;;9.88;54.69